Arney, Indiana
Current Conditions -  °F | °C
As of 8:53 AM on Saturday 22 Nov 2014 (Local Time) from KBMG Reporting Station
Overcast Overcast  
Wind Chill: 38°   Ceiling: 6000
Heat Index: 43°   Visibility: 10mi
Dew Point: 37°   Wind: 9mph
Humidity: 80%   Direction: 150°SSE
Pressure: 30.2"   Gusts: NA
Location:  39.2107°N, 86.8508°W
Report Text: KBMG 221353Z 15008KT 10SM BKN060 OVC070 06/03 A3020 RMK AO2 SLP233 T00610028
Loading
Personal Weather Stations






























Interactive Weather Map New forecast layout! Learn more

10-Day Weather Forecast

Advertisements
Track Severe Weather on mobile